Terminal Aerodrome Forecast
Issued by NWS

Home | Current Version | Previous Version | Graphics & Text | Print | Product List | Glossary On
Versions: 1 2 3 4 5 6 7 8 9 10 11 12 13 14 15 16 17 18 19 20 21 22
000
FTUS43 KPAH 181500 AAA
TAFCGI
TAF AMD
KCGI 181549Z 1816/1912 05006KT P6SM OVC035
     FM190100 06003KT P6SM SCT045
     FM190700 00000KT 4SM BR SKC
      TEMPO 1908/1912 1SM BR=

USA.gov is the U.S. government's official web portal to all federal, state and local government web resources and services.